sensor_id;sensor_type;location;lat;lon;timestamp;P1;durP1;ratioP1;P2;durP2;ratioP2
20810;SDS011;10566;52.928;10.522;2022-12-18T00:02:22;56.17;;;27.93;;
20810;SDS011;10566;52.928;10.522;2022-12-18T00:04:48;55.67;;;27.87;;
20810;SDS011;10566;52.928;10.522;2022-12-18T00:07:14;67.03;;;30.00;;
20810;SDS011;10566;52.928;10.522;2022-12-18T00:09:43;60.70;;;30.00;;
20810;SDS011;10566;52.928;10.522;2022-12-18T00:12:11;65.03;;;31.37;;
20810;SDS011;10566;52.928;10.522;2022-12-18T00:14:38;61.87;;;30.57;;
20810;SDS011;10566;52.928;10.522;2022-12-18T00:17:04;66.67;;;28.43;;
20810;SDS011;10566;52.928;10.522;2022-12-18T00:19:30;65.70;;;28.77;;
20810;SDS011;10566;52.928;10.522;2022-12-18T00:21:56;61.90;;;28.93;;
20810;SDS011;10566;52.928;10.522;2022-12-18T00:24:23;60.47;;;28.17;;
20810;SDS011;10566;52.928;10.522;2022-12-18T00:26:49;59.37;;;28.10;;
20810;SDS011;10566;52.928;10.522;2022-12-18T00:29:15;65.00;;;31.63;;
20810;SDS011;10566;52.928;10.522;2022-12-18T00:31:41;66.00;;;31.07;;
20810;SDS011;10566;52.928;10.522;2022-12-18T00:34:09;70.90;;;32.37;;
20810;SDS011;10566;52.928;10.522;2022-12-18T00:36:37;70.83;;;32.10;;
20810;SDS011;10566;52.928;10.522;2022-12-18T00:39:04;70.20;;;31.37;;
20810;SDS011;10566;52.928;10.522;2022-12-18T00:41:31;72.37;;;31.70;;
20810;SDS011;10566;52.928;10.522;2022-12-18T00:44:17;74.97;;;33.63;;
20810;SDS011;10566;52.928;10.522;2022-12-18T00:46:44;90.93;;;37.87;;
20810;SDS011;10566;52.928;10.522;2022-12-18T00:49:10;107.27;;;41.60;;
20810;SDS011;10566;52.928;10.522;2022-12-18T00:51:36;85.67;;;38.00;;
20810;SDS011;10566;52.928;10.522;2022-12-18T00:54:01;86.40;;;38.00;;
20810;SDS011;10566;52.928;10.522;2022-12-18T00:56:28;77.57;;;33.57;;
20810;SDS011;10566;52.928;10.522;2022-12-18T00:58:54;65.30;;;31.97;;
20810;SDS011;10566;52.928;10.522;2022-12-18T01:01:20;74.00;;;32.20;;
20810;SDS011;10566;52.928;10.522;2022-12-18T01:03:47;71.33;;;32.20;;
20810;SDS011;10566;52.928;10.522;2022-12-18T01:06:13;70.57;;;31.77;;
20810;SDS011;10566;52.928;10.522;2022-12-18T01:08:43;72.87;;;32.90;;
20810;SDS011;10566;52.928;10.522;2022-12-18T01:11:11;62.70;;;28.90;;
20810;SDS011;10566;52.928;10.522;2022-12-18T01:13:41;67.73;;;30.10;;
20810;SDS011;10566;52.928;10.522;2022-12-18T01:16:08;63.50;;;29.57;;
20810;SDS011;10566;52.928;10.522;2022-12-18T01:18:37;68.20;;;32.17;;
20810;SDS011;10566;52.928;10.522;2022-12-18T01:21:07;70.80;;;33.57;;
20810;SDS011;10566;52.928;10.522;2022-12-18T01:23:34;67.03;;;32.80;;
20810;SDS011;10566;52.928;10.522;2022-12-18T01:26:10;65.57;;;30.53;;
20810;SDS011;10566;52.928;10.522;2022-12-18T01:28:40;62.53;;;28.87;;
20810;SDS011;10566;52.928;10.522;2022-12-18T01:31:39;63.97;;;29.00;;
20810;SDS011;10566;52.928;10.522;2022-12-18T01:34:02;67.87;;;31.67;;
20810;SDS011;10566;52.928;10.522;2022-12-18T01:36:30;73.23;;;33.17;;
20810;SDS011;10566;52.928;10.522;2022-12-18T01:39:02;67.63;;;31.37;;
20810;SDS011;10566;52.928;10.522;2022-12-18T01:41:30;65.37;;;30.40;;
20810;SDS011;10566;52.928;10.522;2022-12-18T01:49:55;62.53;;;29.00;;
20810;SDS011;10566;52.928;10.522;2022-12-18T01:52:23;68.20;;;27.93;;
20810;SDS011;10566;52.928;10.522;2022-12-18T01:54:52;60.93;;;27.87;;
20810;SDS011;10566;52.928;10.522;2022-12-18T01:57:19;61.67;;;26.90;;
20810;SDS011;10566;52.928;10.522;2022-12-18T01:59:47;64.53;;;27.27;;
20810;SDS011;10566;52.928;10.522;2022-12-18T02:02:17;62.07;;;28.50;;
20810;SDS011;10566;52.928;10.522;2022-12-18T02:04:45;60.97;;;30.17;;
20810;SDS011;10566;52.928;10.522;2022-12-18T02:10:00;57.53;;;26.70;;
20810;SDS011;10566;52.928;10.522;2022-12-18T02:15:22;65.97;;;26.97;;
20810;SDS011;10566;52.928;10.522;2022-12-18T02:17:54;59.30;;;26.47;;
20810;SDS011;10566;52.928;10.522;2022-12-18T02:20:36;58.40;;;26.60;;
20810;SDS011;10566;52.928;10.522;2022-12-18T02:28:51;56.37;;;26.43;;
20810;SDS011;10566;52.928;10.522;2022-12-18T02:31:22;59.03;;;26.10;;
20810;SDS011;10566;52.928;10.522;2022-12-18T02:33:52;54.37;;;25.43;;
20810;SDS011;10566;52.928;10.522;2022-12-18T02:36:22;58.40;;;26.60;;
20810;SDS011;10566;52.928;10.522;2022-12-18T02:38:49;56.63;;;26.40;;
20810;SDS011;10566;52.928;10.522;2022-12-18T02:41:20;54.37;;;25.87;;
20810;SDS011;10566;52.928;10.522;2022-12-18T02:44:08;53.70;;;26.07;;
20810;SDS011;10566;52.928;10.522;2022-12-18T02:46:36;55.83;;;25.50;;
20810;SDS011;10566;52.928;10.522;2022-12-18T02:49:19;51.93;;;24.73;;
20810;SDS011;10566;52.928;10.522;2022-12-18T02:51:54;56.67;;;26.37;;
20810;SDS011;10566;52.928;10.522;2022-12-18T02:57:30;55.10;;;25.13;;
20810;SDS011;10566;52.928;10.522;2022-12-18T02:59:59;53.90;;;23.27;;
20810;SDS011;10566;52.928;10.522;2022-12-18T03:02:37;50.10;;;23.73;;
20810;SDS011;10566;52.928;10.522;2022-12-18T03:05:13;56.40;;;24.17;;
20810;SDS011;10566;52.928;10.522;2022-12-18T03:07:55;53.70;;;23.97;;
20810;SDS011;10566;52.928;10.522;2022-12-18T03:10:29;54.90;;;24.27;;
20810;SDS011;10566;52.928;10.522;2022-12-18T03:13:05;54.67;;;23.97;;
20810;SDS011;10566;52.928;10.522;2022-12-18T03:15:45;53.43;;;23.77;;
20810;SDS011;10566;52.928;10.522;2022-12-18T03:18:17;53.63;;;24.27;;
20810;SDS011;10566;52.928;10.522;2022-12-18T03:20:48;52.37;;;24.47;;
20810;SDS011;10566;52.928;10.522;2022-12-18T03:23:17;52.40;;;25.30;;
20810;SDS011;10566;52.928;10.522;2022-12-18T03:25:48;49.70;;;24.03;;
20810;SDS011;10566;52.928;10.522;2022-12-18T03:28:21;49.47;;;23.20;;
20810;SDS011;10566;52.928;10.522;2022-12-18T03:30:49;51.33;;;23.50;;
20810;SDS011;10566;52.928;10.522;2022-12-18T03:33:23;52.37;;;24.93;;
20810;SDS011;10566;52.928;10.522;2022-12-18T03:36:04;54.80;;;24.27;;
20810;SDS011;10566;52.928;10.522;2022-12-18T03:38:31;58.03;;;25.33;;
20810;SDS011;10566;52.928;10.522;2022-12-18T03:41:24;53.00;;;23.13;;
20810;SDS011;10566;52.928;10.522;2022-12-18T03:46:33;50.43;;;23.47;;
20810;SDS011;10566;52.928;10.522;2022-12-18T03:49:43;53.83;;;23.73;;
20810;SDS011;10566;52.928;10.522;2022-12-18T03:54:47;47.90;;;23.00;;
20810;SDS011;10566;52.928;10.522;2022-12-18T03:57:15;54.07;;;23.93;;
20810;SDS011;10566;52.928;10.522;2022-12-18T03:59:46;47.87;;;23.43;;
20810;SDS011;10566;52.928;10.522;2022-12-18T04:02:16;45.80;;;23.07;;
20810;SDS011;10566;52.928;10.522;2022-12-18T04:04:43;50.40;;;22.53;;
20810;SDS011;10566;52.928;10.522;2022-12-18T04:07:12;52.37;;;24.03;;
20810;SDS011;10566;52.928;10.522;2022-12-18T04:09:40;56.23;;;23.80;;
20810;SDS011;10566;52.928;10.522;2022-12-18T04:12:07;51.90;;;23.10;;
20810;SDS011;10566;52.928;10.522;2022-12-18T04:14:34;56.33;;;24.40;;
20810;SDS011;10566;52.928;10.522;2022-12-18T04:17:01;57.77;;;23.73;;
20810;SDS011;10566;52.928;10.522;2022-12-18T04:19:28;49.30;;;22.73;;
20810;SDS011;10566;52.928;10.522;2022-12-18T04:21:55;50.30;;;22.97;;
20810;SDS011;10566;52.928;10.522;2022-12-18T04:24:21;50.30;;;23.60;;
20810;SDS011;10566;52.928;10.522;2022-12-18T04:26:47;50.20;;;23.23;;
20810;SDS011;10566;52.928;10.522;2022-12-18T04:29:13;47.13;;;21.67;;
20810;SDS011;10566;52.928;10.522;2022-12-18T04:31:39;47.00;;;22.30;;
20810;SDS011;10566;52.928;10.522;2022-12-18T04:34:06;47.27;;;22.40;;
20810;SDS011;10566;52.928;10.522;2022-12-18T04:36:31;49.17;;;22.37;;
20810;SDS011;10566;52.928;10.522;2022-12-18T04:38:58;46.80;;;21.50;;
20810;SDS011;10566;52.928;10.522;2022-12-18T04:41:24;46.97;;;21.67;;
20810;SDS011;10566;52.928;10.522;2022-12-18T04:43:50;50.07;;;21.17;;
20810;SDS011;10566;52.928;10.522;2022-12-18T04:46:16;49.33;;;22.40;;
20810;SDS011;10566;52.928;10.522;2022-12-18T04:48:44;47.73;;;21.33;;
20810;SDS011;10566;52.928;10.522;2022-12-18T04:51:16;49.37;;;22.50;;
20810;SDS011;10566;52.928;10.522;2022-12-18T04:53:49;42.27;;;20.57;;
20810;SDS011;10566;52.928;10.522;2022-12-18T04:56:15;47.70;;;21.90;;
20810;SDS011;10566;52.928;10.522;2022-12-18T04:58:42;49.70;;;21.27;;
20810;SDS011;10566;52.928;10.522;2022-12-18T05:01:09;44.13;;;20.30;;
20810;SDS011;10566;52.928;10.522;2022-12-18T05:03:37;47.13;;;22.63;;
20810;SDS011;10566;52.928;10.522;2022-12-18T05:06:04;48.67;;;22.37;;
20810;SDS011;10566;52.928;10.522;2022-12-18T05:08:31;50.43;;;21.67;;
20810;SDS011;10566;52.928;10.522;2022-12-18T05:11:16;46.30;;;23.47;;
20810;SDS011;10566;52.928;10.522;2022-12-18T05:13:43;49.50;;;23.13;;
20810;SDS011;10566;52.928;10.522;2022-12-18T05:16:10;47.63;;;22.43;;
20810;SDS011;10566;52.928;10.522;2022-12-18T05:18:37;49.27;;;22.43;;
20810;SDS011;10566;52.928;10.522;2022-12-18T05:21:03;45.97;;;20.73;;
20810;SDS011;10566;52.928;10.522;2022-12-18T05:23:30;41.77;;;20.80;;
20810;SDS011;10566;52.928;10.522;2022-12-18T05:25:58;41.17;;;19.77;;
20810;SDS011;10566;52.928;10.522;2022-12-18T05:28:26;44.67;;;19.83;;
20810;SDS011;10566;52.928;10.522;2022-12-18T05:30:55;44.77;;;20.40;;
20810;SDS011;10566;52.928;10.522;2022-12-18T05:33:23;45.80;;;21.13;;
20810;SDS011;10566;52.928;10.522;2022-12-18T05:35:53;43.27;;;20.27;;
20810;SDS011;10566;52.928;10.522;2022-12-18T05:38:21;45.93;;;21.37;;
20810;SDS011;10566;52.928;10.522;2022-12-18T05:40:49;41.83;;;20.63;;
20810;SDS011;10566;52.928;10.522;2022-12-18T05:43:15;43.50;;;20.67;;
20810;SDS011;10566;52.928;10.522;2022-12-18T05:45:42;45.40;;;20.93;;
20810;SDS011;10566;52.928;10.522;2022-12-18T05:48:08;45.23;;;19.60;;
20810;SDS011;10566;52.928;10.522;2022-12-18T05:50:40;46.33;;;20.73;;
20810;SDS011;10566;52.928;10.522;2022-12-18T05:53:07;45.93;;;20.97;;
20810;SDS011;10566;52.928;10.522;2022-12-18T05:55:37;43.70;;;20.53;;
20810;SDS011;10566;52.928;10.522;2022-12-18T05:58:05;43.40;;;21.07;;
20810;SDS011;10566;52.928;10.522;2022-12-18T06:00:33;44.33;;;21.33;;
20810;SDS011;10566;52.928;10.522;2022-12-18T06:03:01;43.53;;;21.10;;
20810;SDS011;10566;52.928;10.522;2022-12-18T06:05:28;45.03;;;20.37;;
20810;SDS011;10566;52.928;10.522;2022-12-18T06:07:55;41.63;;;20.47;;
20810;SDS011;10566;52.928;10.522;2022-12-18T06:10:22;42.70;;;20.87;;
20810;SDS011;10566;52.928;10.522;2022-12-18T06:12:52;44.80;;;19.83;;
20810;SDS011;10566;52.928;10.522;2022-12-18T06:15:18;43.60;;;19.67;;
20810;SDS011;10566;52.928;10.522;2022-12-18T06:17:44;46.77;;;20.70;;
20810;SDS011;10566;52.928;10.522;2022-12-18T06:20:10;44.80;;;21.23;;
20810;SDS011;10566;52.928;10.522;2022-12-18T06:22:36;48.43;;;21.50;;
20810;SDS011;10566;52.928;10.522;2022-12-18T06:25:02;44.93;;;20.07;;
20810;SDS011;10566;52.928;10.522;2022-12-18T06:27:29;46.13;;;20.27;;
20810;SDS011;10566;52.928;10.522;2022-12-18T06:29:55;44.67;;;19.80;;
20810;SDS011;10566;52.928;10.522;2022-12-18T06:32:24;45.37;;;20.37;;
20810;SDS011;10566;52.928;10.522;2022-12-18T06:34:52;45.13;;;21.50;;
20810;SDS011;10566;52.928;10.522;2022-12-18T06:37:20;48.67;;;21.80;;
20810;SDS011;10566;52.928;10.522;2022-12-18T06:39:50;42.33;;;19.77;;
20810;SDS011;10566;52.928;10.522;2022-12-18T06:42:16;43.70;;;20.97;;
20810;SDS011;10566;52.928;10.522;2022-12-18T06:44:42;42.23;;;20.13;;
20810;SDS011;10566;52.928;10.522;2022-12-18T06:47:08;41.63;;;18.70;;
20810;SDS011;10566;52.928;10.522;2022-12-18T06:49:35;46.27;;;19.90;;
20810;SDS011;10566;52.928;10.522;2022-12-18T06:52:02;46.80;;;21.03;;
20810;SDS011;10566;52.928;10.522;2022-12-18T06:54:29;48.37;;;22.13;;
20810;SDS011;10566;52.928;10.522;2022-12-18T06:56:56;42.73;;;21.23;;
20810;SDS011;10566;52.928;10.522;2022-12-18T06:59:22;58.63;;;23.73;;
20810;SDS011;10566;52.928;10.522;2022-12-18T07:01:49;53.90;;;23.57;;
20810;SDS011;10566;52.928;10.522;2022-12-18T07:04:16;52.63;;;22.43;;
20810;SDS011;10566;52.928;10.522;2022-12-18T07:06:43;48.10;;;22.70;;
20810;SDS011;10566;52.928;10.522;2022-12-18T07:09:10;52.27;;;21.97;;
20810;SDS011;10566;52.928;10.522;2022-12-18T07:11:36;48.30;;;22.13;;
20810;SDS011;10566;52.928;10.522;2022-12-18T07:14:03;47.27;;;22.17;;
20810;SDS011;10566;52.928;10.522;2022-12-18T07:16:30;48.40;;;22.40;;
20810;SDS011;10566;52.928;10.522;2022-12-18T07:18:56;46.07;;;21.60;;
20810;SDS011;10566;52.928;10.522;2022-12-18T07:21:23;44.93;;;21.00;;
20810;SDS011;10566;52.928;10.522;2022-12-18T07:23:50;47.47;;;20.67;;
20810;SDS011;10566;52.928;10.522;2022-12-18T07:26:18;53.07;;;22.93;;
20810;SDS011;10566;52.928;10.522;2022-12-18T07:28:46;45.83;;;21.20;;
20810;SDS011;10566;52.928;10.522;2022-12-18T07:31:15;46.87;;;21.20;;
20810;SDS011;10566;52.928;10.522;2022-12-18T07:33:44;45.43;;;21.33;;
20810;SDS011;10566;52.928;10.522;2022-12-18T07:36:10;46.57;;;21.20;;
20810;SDS011;10566;52.928;10.522;2022-12-18T07:38:38;47.90;;;21.73;;
20810;SDS011;10566;52.928;10.522;2022-12-18T07:41:09;56.10;;;22.93;;
20810;SDS011;10566;52.928;10.522;2022-12-18T07:43:37;62.03;;;22.50;;
20810;SDS011;10566;52.928;10.522;2022-12-18T07:46:07;60.20;;;22.73;;
20810;SDS011;10566;52.928;10.522;2022-12-18T07:48:34;58.67;;;22.83;;
20810;SDS011;10566;52.928;10.522;2022-12-18T07:51:04;67.10;;;28.07;;
20810;SDS011;10566;52.928;10.522;2022-12-18T07:53:37;59.63;;;25.37;;
20810;SDS011;10566;52.928;10.522;2022-12-18T07:56:05;61.83;;;26.17;;
20810;SDS011;10566;52.928;10.522;2022-12-18T07:58:33;62.63;;;27.87;;
20810;SDS011;10566;52.928;10.522;2022-12-18T08:01:06;64.07;;;27.40;;
20810;SDS011;10566;52.928;10.522;2022-12-18T08:03:33;64.50;;;27.63;;
20810;SDS011;10566;52.928;10.522;2022-12-18T08:06:01;62.60;;;25.70;;
20810;SDS011;10566;52.928;10.522;2022-12-18T08:08:28;56.53;;;24.73;;
20810;SDS011;10566;52.928;10.522;2022-12-18T08:10:55;53.37;;;23.57;;
20810;SDS011;10566;52.928;10.522;2022-12-18T08:13:22;55.83;;;24.67;;
20810;SDS011;10566;52.928;10.522;2022-12-18T08:15:58;58.03;;;24.77;;
20810;SDS011;10566;52.928;10.522;2022-12-18T08:18:25;50.03;;;22.43;;
20810;SDS011;10566;52.928;10.522;2022-12-18T08:20:52;54.03;;;23.13;;
20810;SDS011;10566;52.928;10.522;2022-12-18T08:23:18;53.20;;;23.10;;
20810;SDS011;10566;52.928;10.522;2022-12-18T08:25:45;47.07;;;21.77;;
20810;SDS011;10566;52.928;10.522;2022-12-18T08:28:12;51.77;;;22.90;;
20810;SDS011;10566;52.928;10.522;2022-12-18T08:30:39;50.23;;;21.73;;
20810;SDS011;10566;52.928;10.522;2022-12-18T08:33:06;54.73;;;22.90;;
20810;SDS011;10566;52.928;10.522;2022-12-18T08:35:35;54.80;;;24.10;;
20810;SDS011;10566;52.928;10.522;2022-12-18T08:38:02;52.70;;;23.97;;
20810;SDS011;10566;52.928;10.522;2022-12-18T08:40:28;60.30;;;23.93;;
20810;SDS011;10566;52.928;10.522;2022-12-18T08:42:59;54.77;;;23.37;;
20810;SDS011;10566;52.928;10.522;2022-12-18T08:45:44;55.57;;;24.40;;
20810;SDS011;10566;52.928;10.522;2022-12-18T08:48:12;59.10;;;23.40;;
20810;SDS011;10566;52.928;10.522;2022-12-18T08:50:38;59.53;;;24.43;;
20810;SDS011;10566;52.928;10.522;2022-12-18T08:53:04;58.53;;;23.47;;
20810;SDS011;10566;52.928;10.522;2022-12-18T08:55:31;51.33;;;21.80;;
20810;SDS011;10566;52.928;10.522;2022-12-18T08:57:58;50.63;;;22.97;;
20810;SDS011;10566;52.928;10.522;2022-12-18T09:00:24;47.60;;;21.00;;
20810;SDS011;10566;52.928;10.522;2022-12-18T09:02:51;44.00;;;19.63;;
20810;SDS011;10566;52.928;10.522;2022-12-18T09:05:17;38.93;;;17.53;;
20810;SDS011;10566;52.928;10.522;2022-12-18T09:07:43;47.73;;;20.07;;
20810;SDS011;10566;52.928;10.522;2022-12-18T09:10:09;49.00;;;20.70;;
20810;SDS011;10566;52.928;10.522;2022-12-18T09:12:35;42.07;;;19.20;;
20810;SDS011;10566;52.928;10.522;2022-12-18T09:15:02;47.40;;;20.37;;
20810;SDS011;10566;52.928;10.522;2022-12-18T09:17:36;41.57;;;18.70;;
20810;SDS011;10566;52.928;10.522;2022-12-18T09:20:02;47.40;;;20.40;;
20810;SDS011;10566;52.928;10.522;2022-12-18T09:22:28;47.67;;;20.30;;
20810;SDS011;10566;52.928;10.522;2022-12-18T09:24:53;45.43;;;19.83;;
20810;SDS011;10566;52.928;10.522;2022-12-18T09:27:19;42.17;;;17.93;;
20810;SDS011;10566;52.928;10.522;2022-12-18T09:29:45;45.27;;;19.47;;
20810;SDS011;10566;52.928;10.522;2022-12-18T09:32:10;52.63;;;22.37;;
20810;SDS011;10566;52.928;10.522;2022-12-18T09:34:36;47.13;;;20.57;;
20810;SDS011;10566;52.928;10.522;2022-12-18T09:37:02;45.97;;;21.60;;
20810;SDS011;10566;52.928;10.522;2022-12-18T09:39:28;51.90;;;20.67;;
20810;SDS011;10566;52.928;10.522;2022-12-18T09:41:54;43.53;;;19.63;;
20810;SDS011;10566;52.928;10.522;2022-12-18T09:44:33;44.00;;;19.47;;
20810;SDS011;10566;52.928;10.522;2022-12-18T09:49:31;42.67;;;18.07;;
20810;SDS011;10566;52.928;10.522;2022-12-18T09:52:01;52.27;;;21.60;;
20810;SDS011;10566;52.928;10.522;2022-12-18T09:54:33;52.20;;;20.57;;
20810;SDS011;10566;52.928;10.522;2022-12-18T09:57:01;48.97;;;21.90;;
20810;SDS011;10566;52.928;10.522;2022-12-18T09:59:32;49.47;;;21.27;;
20810;SDS011;10566;52.928;10.522;2022-12-18T10:02:00;49.83;;;21.67;;
20810;SDS011;10566;52.928;10.522;2022-12-18T10:04:26;48.20;;;20.87;;
20810;SDS011;10566;52.928;10.522;2022-12-18T10:06:57;51.80;;;22.10;;
20810;SDS011;10566;52.928;10.522;2022-12-18T10:09:34;46.43;;;19.97;;
20810;SDS011;10566;52.928;10.522;2022-12-18T10:12:32;54.87;;;22.30;;
20810;SDS011;10566;52.928;10.522;2022-12-18T10:15:16;48.53;;;20.43;;
20810;SDS011;10566;52.928;10.522;2022-12-18T10:22:40;49.60;;;20.80;;
20810;SDS011;10566;52.928;10.522;2022-12-18T10:27:56;49.23;;;21.13;;
20810;SDS011;10566;52.928;10.522;2022-12-18T10:30:24;49.07;;;21.87;;
20810;SDS011;10566;52.928;10.522;2022-12-18T10:32:50;46.73;;;19.77;;
20810;SDS011;10566;52.928;10.522;2022-12-18T10:35:18;47.57;;;20.70;;
20810;SDS011;10566;52.928;10.522;2022-12-18T10:38:07;47.27;;;20.90;;
20810;SDS011;10566;52.928;10.522;2022-12-18T10:40:32;49.13;;;21.83;;
20810;SDS011;10566;52.928;10.522;2022-12-18T10:43:05;58.13;;;24.80;;
20810;SDS011;10566;52.928;10.522;2022-12-18T10:45:36;43.13;;;20.07;;
20810;SDS011;10566;52.928;10.522;2022-12-18T10:48:02;50.70;;;22.27;;
20810;SDS011;10566;52.928;10.522;2022-12-18T10:50:30;58.47;;;23.63;;
20810;SDS011;10566;52.928;10.522;2022-12-18T10:52:58;53.43;;;23.60;;
20810;SDS011;10566;52.928;10.522;2022-12-18T10:55:25;52.83;;;23.93;;
20810;SDS011;10566;52.928;10.522;2022-12-18T10:57:53;57.33;;;23.93;;
20810;SDS011;10566;52.928;10.522;2022-12-18T11:02:45;56.57;;;25.10;;
20810;SDS011;10566;52.928;10.522;2022-12-18T11:07:49;55.43;;;25.43;;
20810;SDS011;10566;52.928;10.522;2022-12-18T11:10:17;57.13;;;25.90;;
20810;SDS011;10566;52.928;10.522;2022-12-18T11:12:43;53.77;;;23.47;;
20810;SDS011;10566;52.928;10.522;2022-12-18T11:15:27;56.50;;;23.90;;
20810;SDS011;10566;52.928;10.522;2022-12-18T11:17:54;52.27;;;22.10;;
20810;SDS011;10566;52.928;10.522;2022-12-18T11:20:29;58.03;;;24.10;;
20810;SDS011;10566;52.928;10.522;2022-12-18T11:22:58;58.70;;;22.27;;
20810;SDS011;10566;52.928;10.522;2022-12-18T11:25:24;56.17;;;23.03;;
20810;SDS011;10566;52.928;10.522;2022-12-18T11:27:52;57.80;;;24.43;;
20810;SDS011;10566;52.928;10.522;2022-12-18T11:30:34;52.17;;;19.53;;
20810;SDS011;10566;52.928;10.522;2022-12-18T11:37:57;55.70;;;23.57;;
20810;SDS011;10566;52.928;10.522;2022-12-18T11:40:43;53.63;;;22.97;;
20810;SDS011;10566;52.928;10.522;2022-12-18T11:43:11;52.47;;;22.30;;
20810;SDS011;10566;52.928;10.522;2022-12-18T11:45:53;64.57;;;24.90;;
20810;SDS011;10566;52.928;10.522;2022-12-18T11:48:41;54.07;;;23.67;;
20810;SDS011;10566;52.928;10.522;2022-12-18T11:51:11;60.93;;;24.37;;
20810;SDS011;10566;52.928;10.522;2022-12-18T11:53:39;62.13;;;25.57;;
20810;SDS011;10566;52.928;10.522;2022-12-18T12:01:10;57.63;;;23.87;;
20810;SDS011;10566;52.928;10.522;2022-12-18T12:03:46;68.30;;;25.63;;
20810;SDS011;10566;52.928;10.522;2022-12-18T12:06:35;57.97;;;24.67;;
20810;SDS011;10566;52.928;10.522;2022-12-18T12:17:01;49.50;;;20.37;;
20810;SDS011;10566;52.928;10.522;2022-12-18T12:22:07;65.50;;;27.30;;
20810;SDS011;10566;52.928;10.522;2022-12-18T12:24:44;62.40;;;25.23;;
20810;SDS011;10566;52.928;10.522;2022-12-18T12:32:45;65.47;;;27.60;;
20810;SDS011;10566;52.928;10.522;2022-12-18T12:38:05;64.07;;;26.33;;
20810;SDS011;10566;52.928;10.522;2022-12-18T12:40:34;67.10;;;27.90;;
20810;SDS011;10566;52.928;10.522;2022-12-18T12:43:02;64.57;;;27.10;;
20810;SDS011;10566;52.928;10.522;2022-12-18T12:48:24;58.30;;;23.73;;
20810;SDS011;10566;52.928;10.522;2022-12-18T12:50:53;61.63;;;26.73;;
20810;SDS011;10566;52.928;10.522;2022-12-18T12:53:26;61.67;;;26.17;;
20810;SDS011;10566;52.928;10.522;2022-12-18T12:55:54;66.03;;;28.70;;
20810;SDS011;10566;52.928;10.522;2022-12-18T13:03:24;54.27;;;24.63;;
20810;SDS011;10566;52.928;10.522;2022-12-18T13:05:58;73.60;;;30.20;;
20810;SDS011;10566;52.928;10.522;2022-12-18T13:08:31;61.37;;;27.13;;
20810;SDS011;10566;52.928;10.522;2022-12-18T13:10:58;64.37;;;28.43;;
20810;SDS011;10566;52.928;10.522;2022-12-18T13:16:18;66.90;;;30.70;;
20810;SDS011;10566;52.928;10.522;2022-12-18T13:18:51;67.97;;;29.07;;
20810;SDS011;10566;52.928;10.522;2022-12-18T13:23:43;62.73;;;27.00;;
20810;SDS011;10566;52.928;10.522;2022-12-18T13:31:11;64.37;;;26.80;;
20810;SDS011;10566;52.928;10.522;2022-12-18T13:33:41;65.87;;;27.00;;
20810;SDS011;10566;52.928;10.522;2022-12-18T13:36:25;63.53;;;26.37;;
20810;SDS011;10566;52.928;10.522;2022-12-18T13:41:36;76.57;;;29.77;;
20810;SDS011;10566;52.928;10.522;2022-12-18T13:44:38;90.10;;;35.30;;
20810;SDS011;10566;52.928;10.522;2022-12-18T13:46:54;82.33;;;32.50;;
20810;SDS011;10566;52.928;10.522;2022-12-18T13:49:25;63.00;;;25.83;;
20810;SDS011;10566;52.928;10.522;2022-12-18T13:51:53;65.50;;;27.80;;
20810;SDS011;10566;52.928;10.522;2022-12-18T13:54:35;71.73;;;28.90;;
20810;SDS011;10566;52.928;10.522;2022-12-18T13:57:02;73.00;;;29.10;;
20810;SDS011;10566;52.928;10.522;2022-12-18T14:01:59;71.23;;;27.43;;
20810;SDS011;10566;52.928;10.522;2022-12-18T14:06:53;65.77;;;27.23;;
20810;SDS011;10566;52.928;10.522;2022-12-18T14:09:22;64.13;;;28.57;;
20810;SDS011;10566;52.928;10.522;2022-12-18T14:11:49;60.27;;;25.07;;
20810;SDS011;10566;52.928;10.522;2022-12-18T14:14:16;64.87;;;27.03;;
20810;SDS011;10566;52.928;10.522;2022-12-18T14:16:43;69.37;;;27.17;;
20810;SDS011;10566;52.928;10.522;2022-12-18T14:19:15;62.93;;;27.37;;
20810;SDS011;10566;52.928;10.522;2022-12-18T14:21:48;60.57;;;26.37;;
20810;SDS011;10566;52.928;10.522;2022-12-18T14:24:16;65.13;;;26.10;;
20810;SDS011;10566;52.928;10.522;2022-12-18T14:26:44;62.13;;;25.90;;
20810;SDS011;10566;52.928;10.522;2022-12-18T14:29:18;60.40;;;22.17;;
20810;SDS011;10566;52.928;10.522;2022-12-18T14:31:44;61.40;;;26.10;;
20810;SDS011;10566;52.928;10.522;2022-12-18T14:34:16;67.03;;;27.23;;
20810;SDS011;10566;52.928;10.522;2022-12-18T14:36:53;62.90;;;25.87;;
20810;SDS011;10566;52.928;10.522;2022-12-18T14:39:20;65.20;;;26.30;;
20810;SDS011;10566;52.928;10.522;2022-12-18T14:41:48;64.30;;;26.40;;
20810;SDS011;10566;52.928;10.522;2022-12-18T14:44:14;62.83;;;25.17;;
20810;SDS011;10566;52.928;10.522;2022-12-18T14:46:44;60.33;;;25.97;;
20810;SDS011;10566;52.928;10.522;2022-12-18T14:49:24;57.27;;;24.83;;
20810;SDS011;10566;52.928;10.522;2022-12-18T14:51:53;65.93;;;26.07;;
20810;SDS011;10566;52.928;10.522;2022-12-18T14:54:20;59.17;;;25.57;;
20810;SDS011;10566;52.928;10.522;2022-12-18T14:56:47;65.10;;;26.87;;
20810;SDS011;10566;52.928;10.522;2022-12-18T14:59:23;61.30;;;26.00;;
20810;SDS011;10566;52.928;10.522;2022-12-18T15:04:26;63.17;;;26.40;;
20810;SDS011;10566;52.928;10.522;2022-12-18T15:09:37;60.50;;;26.70;;
20810;SDS011;10566;52.928;10.522;2022-12-18T15:12:03;56.97;;;24.60;;
20810;SDS011;10566;52.928;10.522;2022-12-18T15:16:56;61.07;;;27.70;;
20810;SDS011;10566;52.928;10.522;2022-12-18T15:19:25;65.23;;;26.97;;
20810;SDS011;10566;52.928;10.522;2022-12-18T15:21:57;57.17;;;24.70;;
20810;SDS011;10566;52.928;10.522;2022-12-18T15:24:25;55.70;;;23.43;;
20810;SDS011;10566;52.928;10.522;2022-12-18T15:26:52;56.53;;;24.77;;
20810;SDS011;10566;52.928;10.522;2022-12-18T15:29:19;64.03;;;28.83;;
20810;SDS011;10566;52.928;10.522;2022-12-18T15:31:45;53.00;;;23.73;;
20810;SDS011;10566;52.928;10.522;2022-12-18T15:34:23;49.90;;;23.33;;
20810;SDS011;10566;52.928;10.522;2022-12-18T15:36:51;53.33;;;22.67;;
20810;SDS011;10566;52.928;10.522;2022-12-18T15:39:17;53.30;;;24.67;;
20810;SDS011;10566;52.928;10.522;2022-12-18T15:41:43;48.87;;;22.83;;
20810;SDS011;10566;52.928;10.522;2022-12-18T15:44:29;50.23;;;22.63;;
20810;SDS011;10566;52.928;10.522;2022-12-18T15:46:55;46.77;;;21.77;;
20810;SDS011;10566;52.928;10.522;2022-12-18T15:49:21;49.10;;;21.73;;
20810;SDS011;10566;52.928;10.522;2022-12-18T15:51:52;43.00;;;19.73;;
20810;SDS011;10566;52.928;10.522;2022-12-18T15:54:19;44.63;;;20.20;;
20810;SDS011;10566;52.928;10.522;2022-12-18T15:57:09;47.87;;;22.30;;
20810;SDS011;10566;52.928;10.522;2022-12-18T15:59:52;44.53;;;20.63;;
20810;SDS011;10566;52.928;10.522;2022-12-18T16:02:19;51.77;;;23.30;;
20810;SDS011;10566;52.928;10.522;2022-12-18T16:04:45;42.67;;;20.90;;
20810;SDS011;10566;52.928;10.522;2022-12-18T16:07:11;48.30;;;22.53;;